sensor_id;sensor_type;location;lat;lon;timestamp;P1;durP1;ratioP1;P2;durP2;ratioP2
14076;SDS011;7114;51.100;13.998;2022-10-17T00:00:39;18.07;;;8.57;;
14076;SDS011;7114;51.100;13.998;2022-10-17T00:03:06;21.33;;;8.52;;
14076;SDS011;7114;51.100;13.998;2022-10-17T00:05:32;22.30;;;9.60;;
14076;SDS011;7114;51.100;13.998;2022-10-17T00:07:59;23.27;;;9.82;;
14076;SDS011;7114;51.100;13.998;2022-10-17T00:10:25;24.50;;;9.70;;
14076;SDS011;7114;51.100;13.998;2022-10-17T00:12:51;29.50;;;10.30;;
14076;SDS011;7114;51.100;13.998;2022-10-17T00:15:19;24.23;;;10.82;;
14076;SDS011;7114;51.100;13.998;2022-10-17T00:17:47;27.20;;;11.32;;
14076;SDS011;7114;51.100;13.998;2022-10-17T00:20:13;29.35;;;11.88;;
14076;SDS011;7114;51.100;13.998;2022-10-17T00:22:40;29.65;;;11.85;;
14076;SDS011;7114;51.100;13.998;2022-10-17T00:25:07;31.70;;;11.97;;
14076;SDS011;7114;51.100;13.998;2022-10-17T00:27:34;30.30;;;11.27;;
14076;SDS011;7114;51.100;13.998;2022-10-17T00:30:00;29.38;;;11.18;;
14076;SDS011;7114;51.100;13.998;2022-10-17T00:32:28;31.15;;;11.48;;
14076;SDS011;7114;51.100;13.998;2022-10-17T00:34:54;30.08;;;12.13;;
14076;SDS011;7114;51.100;13.998;2022-10-17T00:37:21;27.07;;;11.07;;
14076;SDS011;7114;51.100;13.998;2022-10-17T00:39:47;30.85;;;11.52;;
14076;SDS011;7114;51.100;13.998;2022-10-17T00:42:14;28.88;;;11.32;;
14076;SDS011;7114;51.100;13.998;2022-10-17T00:44:56;28.50;;;11.65;;
14076;SDS011;7114;51.100;13.998;2022-10-17T00:47:25;29.63;;;11.60;;
14076;SDS011;7114;51.100;13.998;2022-10-17T00:49:54;30.57;;;12.27;;
14076;SDS011;7114;51.100;13.998;2022-10-17T00:52:21;31.80;;;12.40;;
14076;SDS011;7114;51.100;13.998;2022-10-17T00:54:51;32.80;;;12.55;;
14076;SDS011;7114;51.100;13.998;2022-10-17T00:57:20;35.22;;;12.82;;
14076;SDS011;7114;51.100;13.998;2022-10-17T00:59:47;34.83;;;12.57;;
14076;SDS011;7114;51.100;13.998;2022-10-17T01:02:16;37.03;;;13.90;;
14076;SDS011;7114;51.100;13.998;2022-10-17T01:04:45;33.35;;;12.55;;
14076;SDS011;7114;51.100;13.998;2022-10-17T01:07:14;36.85;;;12.77;;
14076;SDS011;7114;51.100;13.998;2022-10-17T01:09:41;39.08;;;13.15;;
14076;SDS011;7114;51.100;13.998;2022-10-17T01:12:10;34.00;;;13.20;;
14076;SDS011;7114;51.100;13.998;2022-10-17T01:14:42;34.47;;;14.03;;
14076;SDS011;7114;51.100;13.998;2022-10-17T01:17:14;37.38;;;13.70;;
14076;SDS011;7114;51.100;13.998;2022-10-17T01:19:54;33.40;;;13.25;;
14076;SDS011;7114;51.100;13.998;2022-10-17T01:22:32;39.97;;;14.02;;
14076;SDS011;7114;51.100;13.998;2022-10-17T01:25:12;40.85;;;15.02;;
14076;SDS011;7114;51.100;13.998;2022-10-17T01:27:50;42.10;;;14.90;;
14076;SDS011;7114;51.100;13.998;2022-10-17T01:30:44;41.58;;;15.13;;
14076;SDS011;7114;51.100;13.998;2022-10-17T01:33:16;42.20;;;15.65;;
14076;SDS011;7114;51.100;13.998;2022-10-17T01:35:49;44.38;;;16.08;;
14076;SDS011;7114;51.100;13.998;2022-10-17T01:38:19;45.88;;;16.10;;
14076;SDS011;7114;51.100;13.998;2022-10-17T01:40:48;44.87;;;16.03;;
14076;SDS011;7114;51.100;13.998;2022-10-17T01:43:17;51.03;;;16.60;;
14076;SDS011;7114;51.100;13.998;2022-10-17T01:45:49;50.13;;;16.42;;
14076;SDS011;7114;51.100;13.998;2022-10-17T01:48:17;47.58;;;16.73;;
14076;SDS011;7114;51.100;13.998;2022-10-17T01:50:47;49.38;;;16.55;;
14076;SDS011;7114;51.100;13.998;2022-10-17T01:53:17;48.67;;;16.87;;
14076;SDS011;7114;51.100;13.998;2022-10-17T01:55:45;53.53;;;17.83;;
14076;SDS011;7114;51.100;13.998;2022-10-17T01:58:12;46.70;;;17.73;;
14076;SDS011;7114;51.100;13.998;2022-10-17T02:00:43;52.67;;;17.38;;
14076;SDS011;7114;51.100;13.998;2022-10-17T02:03:12;46.30;;;17.92;;
14076;SDS011;7114;51.100;13.998;2022-10-17T02:05:40;50.00;;;17.70;;
14076;SDS011;7114;51.100;13.998;2022-10-17T02:08:07;49.33;;;17.13;;
14076;SDS011;7114;51.100;13.998;2022-10-17T02:10:37;51.08;;;17.60;;
14076;SDS011;7114;51.100;13.998;2022-10-17T02:13:05;53.92;;;18.55;;
14076;SDS011;7114;51.100;13.998;2022-10-17T02:15:39;56.88;;;18.83;;
14076;SDS011;7114;51.100;13.998;2022-10-17T02:18:19;51.60;;;17.87;;
14076;SDS011;7114;51.100;13.998;2022-10-17T02:20:56;54.33;;;18.30;;
14076;SDS011;7114;51.100;13.998;2022-10-17T02:23:26;63.60;;;19.42;;
14076;SDS011;7114;51.100;13.998;2022-10-17T02:26:03;60.70;;;19.67;;
14076;SDS011;7114;51.100;13.998;2022-10-17T02:28:33;55.65;;;19.42;;
14076;SDS011;7114;51.100;13.998;2022-10-17T02:31:06;58.47;;;20.67;;
14076;SDS011;7114;51.100;13.998;2022-10-17T02:33:36;62.28;;;20.70;;
14076;SDS011;7114;51.100;13.998;2022-10-17T02:36:06;58.20;;;20.23;;
14076;SDS011;7114;51.100;13.998;2022-10-17T02:38:35;59.03;;;20.17;;
14076;SDS011;7114;51.100;13.998;2022-10-17T02:41:03;62.90;;;20.13;;
14076;SDS011;7114;51.100;13.998;2022-10-17T02:43:31;53.83;;;18.83;;
14076;SDS011;7114;51.100;13.998;2022-10-17T02:45:59;58.38;;;20.08;;
14076;SDS011;7114;51.100;13.998;2022-10-17T02:48:26;61.83;;;21.30;;
14076;SDS011;7114;51.100;13.998;2022-10-17T02:51:00;60.85;;;20.35;;
14076;SDS011;7114;51.100;13.998;2022-10-17T02:53:31;63.63;;;20.73;;
14076;SDS011;7114;51.100;13.998;2022-10-17T02:56:04;58.20;;;19.60;;
14076;SDS011;7114;51.100;13.998;2022-10-17T02:58:37;62.50;;;20.20;;
14076;SDS011;7114;51.100;13.998;2022-10-17T03:01:05;63.97;;;20.52;;
14076;SDS011;7114;51.100;13.998;2022-10-17T03:03:32;58.67;;;19.77;;
14076;SDS011;7114;51.100;13.998;2022-10-17T03:05:59;50.55;;;19.50;;
14076;SDS011;7114;51.100;13.998;2022-10-17T03:08:26;64.27;;;20.67;;
14076;SDS011;7114;51.100;13.998;2022-10-17T03:10:52;65.80;;;20.60;;
14076;SDS011;7114;51.100;13.998;2022-10-17T03:13:19;63.75;;;20.35;;
14076;SDS011;7114;51.100;13.998;2022-10-17T03:15:45;62.70;;;19.10;;
14076;SDS011;7114;51.100;13.998;2022-10-17T03:18:12;57.60;;;19.58;;
14076;SDS011;7114;51.100;13.998;2022-10-17T03:20:38;65.33;;;20.13;;
14076;SDS011;7114;51.100;13.998;2022-10-17T03:23:06;49.92;;;19.88;;
14076;SDS011;7114;51.100;13.998;2022-10-17T03:25:32;60.15;;;20.17;;
14076;SDS011;7114;51.100;13.998;2022-10-17T03:27:59;55.25;;;20.60;;
14076;SDS011;7114;51.100;13.998;2022-10-17T03:30:26;60.80;;;19.80;;
14076;SDS011;7114;51.100;13.998;2022-10-17T03:32:53;62.20;;;21.10;;
14076;SDS011;7114;51.100;13.998;2022-10-17T03:35:19;58.30;;;21.17;;
14076;SDS011;7114;51.100;13.998;2022-10-17T03:37:45;65.28;;;21.60;;
14076;SDS011;7114;51.100;13.998;2022-10-17T03:40:13;63.60;;;21.27;;
14076;SDS011;7114;51.100;13.998;2022-10-17T03:42:39;75.38;;;22.33;;
14076;SDS011;7114;51.100;13.998;2022-10-17T03:45:06;61.20;;;20.70;;
14076;SDS011;7114;51.100;13.998;2022-10-17T03:47:33;66.85;;;21.88;;
14076;SDS011;7114;51.100;13.998;2022-10-17T03:49:59;69.38;;;21.83;;
14076;SDS011;7114;51.100;13.998;2022-10-17T03:52:25;64.25;;;22.42;;
14076;SDS011;7114;51.100;13.998;2022-10-17T03:54:52;62.95;;;22.33;;
14076;SDS011;7114;51.100;13.998;2022-10-17T03:57:20;62.53;;;21.50;;
14076;SDS011;7114;51.100;13.998;2022-10-17T03:59:46;61.72;;;21.60;;
14076;SDS011;7114;51.100;13.998;2022-10-17T04:02:12;63.15;;;22.63;;
14076;SDS011;7114;51.100;13.998;2022-10-17T04:04:39;72.47;;;23.65;;
14076;SDS011;7114;51.100;13.998;2022-10-17T04:07:05;65.93;;;22.05;;
14076;SDS011;7114;51.100;13.998;2022-10-17T04:09:31;63.83;;;22.83;;
14076;SDS011;7114;51.100;13.998;2022-10-17T04:11:58;65.07;;;23.42;;
14076;SDS011;7114;51.100;13.998;2022-10-17T04:14:25;65.20;;;23.30;;
14076;SDS011;7114;51.100;13.998;2022-10-17T04:16:52;62.85;;;23.13;;
14076;SDS011;7114;51.100;13.998;2022-10-17T04:19:18;68.25;;;23.42;;
14076;SDS011;7114;51.100;13.998;2022-10-17T04:21:45;67.60;;;23.70;;
14076;SDS011;7114;51.100;13.998;2022-10-17T04:24:12;78.88;;;24.42;;
14076;SDS011;7114;51.100;13.998;2022-10-17T04:26:38;71.47;;;24.05;;
14076;SDS011;7114;51.100;13.998;2022-10-17T04:29:05;77.47;;;24.10;;
14076;SDS011;7114;51.100;13.998;2022-10-17T04:31:32;64.82;;;24.27;;
14076;SDS011;7114;51.100;13.998;2022-10-17T04:33:59;78.60;;;24.67;;
14076;SDS011;7114;51.100;13.998;2022-10-17T04:36:25;80.78;;;25.70;;
14076;SDS011;7114;51.100;13.998;2022-10-17T04:38:52;71.13;;;25.50;;
14076;SDS011;7114;51.100;13.998;2022-10-17T04:41:18;80.65;;;24.75;;
14076;SDS011;7114;51.100;13.998;2022-10-17T04:43:44;76.80;;;25.67;;
14076;SDS011;7114;51.100;13.998;2022-10-17T04:46:11;72.33;;;26.37;;
14076;SDS011;7114;51.100;13.998;2022-10-17T04:48:40;76.70;;;25.40;;
14076;SDS011;7114;51.100;13.998;2022-10-17T04:51:07;72.18;;;25.02;;
14076;SDS011;7114;51.100;13.998;2022-10-17T04:53:36;64.20;;;23.33;;
14076;SDS011;7114;51.100;13.998;2022-10-17T04:56:06;74.50;;;25.00;;
14076;SDS011;7114;51.100;13.998;2022-10-17T04:58:33;79.27;;;25.20;;
14076;SDS011;7114;51.100;13.998;2022-10-17T05:01:02;75.88;;;24.77;;
14076;SDS011;7114;51.100;13.998;2022-10-17T05:03:30;72.32;;;24.95;;
14076;SDS011;7114;51.100;13.998;2022-10-17T05:05:57;80.75;;;26.58;;
14076;SDS011;7114;51.100;13.998;2022-10-17T05:08:24;85.72;;;26.08;;
14076;SDS011;7114;51.100;13.998;2022-10-17T05:10:50;70.20;;;25.60;;
14076;SDS011;7114;51.100;13.998;2022-10-17T05:13:16;70.65;;;25.92;;
14076;SDS011;7114;51.100;13.998;2022-10-17T05:15:43;81.47;;;26.75;;
14076;SDS011;7114;51.100;13.998;2022-10-17T05:18:09;81.60;;;26.52;;
14076;SDS011;7114;51.100;13.998;2022-10-17T05:20:36;75.43;;;25.35;;
14076;SDS011;7114;51.100;13.998;2022-10-17T05:23:03;82.23;;;25.53;;
14076;SDS011;7114;51.100;13.998;2022-10-17T05:25:30;78.50;;;27.88;;
14076;SDS011;7114;51.100;13.998;2022-10-17T05:27:56;84.55;;;27.02;;
14076;SDS011;7114;51.100;13.998;2022-10-17T05:30:22;73.95;;;26.75;;
14076;SDS011;7114;51.100;13.998;2022-10-17T05:32:50;80.10;;;28.13;;
14076;SDS011;7114;51.100;13.998;2022-10-17T05:35:18;78.37;;;26.60;;
14076;SDS011;7114;51.100;13.998;2022-10-17T05:37:44;72.18;;;26.67;;
14076;SDS011;7114;51.100;13.998;2022-10-17T05:40:12;83.78;;;26.92;;
14076;SDS011;7114;51.100;13.998;2022-10-17T05:42:39;75.90;;;26.00;;
14076;SDS011;7114;51.100;13.998;2022-10-17T05:45:06;76.55;;;25.80;;
14076;SDS011;7114;51.100;13.998;2022-10-17T05:47:33;72.33;;;26.60;;
14076;SDS011;7114;51.100;13.998;2022-10-17T05:50:00;71.30;;;26.80;;
14076;SDS011;7114;51.100;13.998;2022-10-17T05:52:26;79.85;;;28.10;;
14076;SDS011;7114;51.100;13.998;2022-10-17T05:54:52;78.32;;;27.08;;
14076;SDS011;7114;51.100;13.998;2022-10-17T05:57:20;75.03;;;26.98;;
14076;SDS011;7114;51.100;13.998;2022-10-17T05:59:49;73.07;;;27.03;;
14076;SDS011;7114;51.100;13.998;2022-10-17T06:02:16;80.53;;;28.17;;
14076;SDS011;7114;51.100;13.998;2022-10-17T06:04:42;73.63;;;28.02;;
14076;SDS011;7114;51.100;13.998;2022-10-17T06:07:10;74.82;;;28.08;;
14076;SDS011;7114;51.100;13.998;2022-10-17T06:09:36;78.38;;;28.45;;
14076;SDS011;7114;51.100;13.998;2022-10-17T06:12:03;82.37;;;29.47;;
14076;SDS011;7114;51.100;13.998;2022-10-17T06:14:31;76.40;;;29.33;;
14076;SDS011;7114;51.100;13.998;2022-10-17T06:16:57;79.22;;;29.40;;
14076;SDS011;7114;51.100;13.998;2022-10-17T06:19:24;74.15;;;28.13;;
14076;SDS011;7114;51.100;13.998;2022-10-17T06:21:50;79.13;;;29.40;;
14076;SDS011;7114;51.100;13.998;2022-10-17T06:24:17;75.47;;;28.83;;
14076;SDS011;7114;51.100;13.998;2022-10-17T06:26:43;74.82;;;28.77;;
14076;SDS011;7114;51.100;13.998;2022-10-17T06:29:11;70.13;;;28.50;;
14076;SDS011;7114;51.100;13.998;2022-10-17T06:31:39;71.63;;;28.55;;
14076;SDS011;7114;51.100;13.998;2022-10-17T06:34:05;69.15;;;28.90;;
14076;SDS011;7114;51.100;13.998;2022-10-17T06:36:31;66.37;;;27.43;;
14076;SDS011;7114;51.100;13.998;2022-10-17T06:38:58;64.43;;;27.88;;
14076;SDS011;7114;51.100;13.998;2022-10-17T06:41:24;60.90;;;27.20;;
14076;SDS011;7114;51.100;13.998;2022-10-17T06:43:51;61.78;;;27.13;;
14076;SDS011;7114;51.100;13.998;2022-10-17T06:46:18;56.17;;;26.10;;
14076;SDS011;7114;51.100;13.998;2022-10-17T06:48:45;54.43;;;26.30;;
14076;SDS011;7114;51.100;13.998;2022-10-17T06:51:12;57.13;;;25.92;;
14076;SDS011;7114;51.100;13.998;2022-10-17T06:53:38;56.10;;;26.15;;
14076;SDS011;7114;51.100;13.998;2022-10-17T06:56:06;57.70;;;25.40;;
14076;SDS011;7114;51.100;13.998;2022-10-17T06:58:34;52.63;;;25.75;;
14076;SDS011;7114;51.100;13.998;2022-10-17T07:01:03;53.67;;;25.53;;
14076;SDS011;7114;51.100;13.998;2022-10-17T07:03:31;49.97;;;25.23;;
14076;SDS011;7114;51.100;13.998;2022-10-17T07:05:59;51.03;;;25.13;;
14076;SDS011;7114;51.100;13.998;2022-10-17T07:08:25;52.40;;;26.15;;
14076;SDS011;7114;51.100;13.998;2022-10-17T07:10:52;49.42;;;24.58;;
14076;SDS011;7114;51.100;13.998;2022-10-17T07:13:19;49.80;;;24.83;;
14076;SDS011;7114;51.100;13.998;2022-10-17T07:15:46;48.60;;;24.77;;
14076;SDS011;7114;51.100;13.998;2022-10-17T07:18:12;47.00;;;24.63;;
14076;SDS011;7114;51.100;13.998;2022-10-17T07:20:38;46.88;;;24.25;;
14076;SDS011;7114;51.100;13.998;2022-10-17T07:23:06;48.38;;;23.85;;
14076;SDS011;7114;51.100;13.998;2022-10-17T07:25:33;44.60;;;23.20;;
14076;SDS011;7114;51.100;13.998;2022-10-17T07:27:59;48.75;;;24.10;;
14076;SDS011;7114;51.100;13.998;2022-10-17T07:30:26;46.22;;;24.23;;
14076;SDS011;7114;51.100;13.998;2022-10-17T07:32:52;46.58;;;23.95;;
14076;SDS011;7114;51.100;13.998;2022-10-17T07:35:19;47.33;;;24.25;;
14076;SDS011;7114;51.100;13.998;2022-10-17T07:37:46;45.00;;;23.43;;
14076;SDS011;7114;51.100;13.998;2022-10-17T07:40:14;45.40;;;23.83;;
14076;SDS011;7114;51.100;13.998;2022-10-17T07:42:40;40.25;;;22.35;;
14076;SDS011;7114;51.100;13.998;2022-10-17T07:45:07;42.03;;;21.88;;
14076;SDS011;7114;51.100;13.998;2022-10-17T07:47:34;36.63;;;20.65;;
14076;SDS011;7114;51.100;13.998;2022-10-17T07:50:00;36.03;;;19.93;;
14076;SDS011;7114;51.100;13.998;2022-10-17T07:52:27;39.75;;;19.73;;
14076;SDS011;7114;51.100;13.998;2022-10-17T07:54:53;36.22;;;20.08;;
14076;SDS011;7114;51.100;13.998;2022-10-17T07:57:21;32.17;;;18.88;;
14076;SDS011;7114;51.100;13.998;2022-10-17T07:59:47;33.10;;;18.90;;
14076;SDS011;7114;51.100;13.998;2022-10-17T08:02:17;31.50;;;18.60;;
14076;SDS011;7114;51.100;13.998;2022-10-17T08:04:46;29.13;;;17.23;;
14076;SDS011;7114;51.100;13.998;2022-10-17T08:07:12;31.42;;;18.13;;
14076;SDS011;7114;51.100;13.998;2022-10-17T08:09:40;28.15;;;17.02;;
14076;SDS011;7114;51.100;13.998;2022-10-17T08:12:06;29.85;;;17.70;;
14076;SDS011;7114;51.100;13.998;2022-10-17T08:14:34;29.13;;;17.70;;
14076;SDS011;7114;51.100;13.998;2022-10-17T08:17:01;28.17;;;17.65;;
14076;SDS011;7114;51.100;13.998;2022-10-17T08:19:27;27.17;;;17.02;;
14076;SDS011;7114;51.100;13.998;2022-10-17T08:21:53;26.65;;;16.92;;
14076;SDS011;7114;51.100;13.998;2022-10-17T08:24:21;25.70;;;16.30;;
14076;SDS011;7114;51.100;13.998;2022-10-17T08:26:47;26.97;;;16.40;;
14076;SDS011;7114;51.100;13.998;2022-10-17T08:29:14;25.63;;;16.00;;
14076;SDS011;7114;51.100;13.998;2022-10-17T08:31:42;26.73;;;16.42;;
14076;SDS011;7114;51.100;13.998;2022-10-17T08:34:09;27.65;;;16.52;;
14076;SDS011;7114;51.100;13.998;2022-10-17T08:36:35;24.48;;;15.02;;
14076;SDS011;7114;51.100;13.998;2022-10-17T08:39:02;26.60;;;16.00;;
14076;SDS011;7114;51.100;13.998;2022-10-17T08:41:34;27.08;;;15.60;;
14076;SDS011;7114;51.100;13.998;2022-10-17T08:44:08;24.13;;;14.68;;
14076;SDS011;7114;51.100;13.998;2022-10-17T08:46:40;24.25;;;15.73;;
14076;SDS011;7114;51.100;13.998;2022-10-17T08:49:10;24.40;;;15.50;;
14076;SDS011;7114;51.100;13.998;2022-10-17T08:51:39;23.23;;;15.53;;
14076;SDS011;7114;51.100;13.998;2022-10-17T08:54:11;26.48;;;16.15;;
14076;SDS011;7114;51.100;13.998;2022-10-17T08:56:41;21.92;;;14.95;;
14076;SDS011;7114;51.100;13.998;2022-10-17T08:59:09;24.15;;;14.68;;
14076;SDS011;7114;51.100;13.998;2022-10-17T09:01:38;22.90;;;14.68;;
14076;SDS011;7114;51.100;13.998;2022-10-17T09:04:23;22.13;;;15.27;;
14076;SDS011;7114;51.100;13.998;2022-10-17T09:07:04;21.45;;;14.32;;
14076;SDS011;7114;51.100;13.998;2022-10-17T09:09:34;22.00;;;14.93;;
14076;SDS011;7114;51.100;13.998;2022-10-17T09:12:10;23.70;;;14.88;;
14076;SDS011;7114;51.100;13.998;2022-10-17T09:14:49;23.60;;;15.38;;
14076;SDS011;7114;51.100;13.998;2022-10-17T09:17:25;23.47;;;15.20;;
14076;SDS011;7114;51.100;13.998;2022-10-17T09:19:59;23.13;;;14.90;;
14076;SDS011;7114;51.100;13.998;2022-10-17T09:22:29;20.52;;;14.38;;
14076;SDS011;7114;51.100;13.998;2022-10-17T09:25:01;23.92;;;14.65;;
14076;SDS011;7114;51.100;13.998;2022-10-17T09:27:32;23.58;;;14.65;;
14076;SDS011;7114;51.100;13.998;2022-10-17T09:30:13;22.83;;;14.27;;
14076;SDS011;7114;51.100;13.998;2022-10-17T09:32:44;21.77;;;14.63;;
14076;SDS011;7114;51.100;13.998;2022-10-17T09:35:13;20.35;;;14.48;;
14076;SDS011;7114;51.100;13.998;2022-10-17T09:37:40;22.48;;;14.57;;
14076;SDS011;7114;51.100;13.998;2022-10-17T09:40:07;21.40;;;13.77;;
14076;SDS011;7114;51.100;13.998;2022-10-17T09:42:41;20.50;;;13.80;;
14076;SDS011;7114;51.100;13.998;2022-10-17T09:45:15;20.45;;;14.18;;
14076;SDS011;7114;51.100;13.998;2022-10-17T09:47:44;19.05;;;13.73;;
14076;SDS011;7114;51.100;13.998;2022-10-17T09:50:16;19.80;;;13.85;;
14076;SDS011;7114;51.100;13.998;2022-10-17T09:52:46;20.98;;;13.48;;
14076;SDS011;7114;51.100;13.998;2022-10-17T09:55:15;19.23;;;13.47;;
14076;SDS011;7114;51.100;13.998;2022-10-17T09:57:53;20.70;;;13.43;;
14076;SDS011;7114;51.100;13.998;2022-10-17T10:00:21;19.73;;;14.05;;
14076;SDS011;7114;51.100;13.998;2022-10-17T10:02:49;19.92;;;13.20;;
14076;SDS011;7114;51.100;13.998;2022-10-17T10:05:17;20.05;;;14.13;;
14076;SDS011;7114;51.100;13.998;2022-10-17T10:08:01;17.73;;;13.30;;
14076;SDS011;7114;51.100;13.998;2022-10-17T10:10:29;19.45;;;14.15;;
14076;SDS011;7114;51.100;13.998;2022-10-17T10:13:03;18.88;;;13.70;;
14076;SDS011;7114;51.100;13.998;2022-10-17T10:15:32;17.02;;;12.90;;
14076;SDS011;7114;51.100;13.998;2022-10-17T10:18:01;17.33;;;13.13;;
14076;SDS011;7114;51.100;13.998;2022-10-17T10:20:30;19.40;;;13.53;;
14076;SDS011;7114;51.100;13.998;2022-10-17T10:23:10;19.70;;;13.98;;
14076;SDS011;7114;51.100;13.998;2022-10-17T10:25:48;19.00;;;13.57;;
14076;SDS011;7114;51.100;13.998;2022-10-17T10:28:18;17.85;;;13.35;;
14076;SDS011;7114;51.100;13.998;2022-10-17T10:30:46;17.85;;;12.93;;
14076;SDS011;7114;51.100;13.998;2022-10-17T10:33:13;17.87;;;13.50;;
14076;SDS011;7114;51.100;13.998;2022-10-17T10:35:41;18.55;;;13.18;;
14076;SDS011;7114;51.100;13.998;2022-10-17T10:38:08;17.65;;;13.27;;
14076;SDS011;7114;51.100;13.998;2022-10-17T10:40:37;19.50;;;12.95;;
14076;SDS011;7114;51.100;13.998;2022-10-17T10:43:18;18.13;;;13.48;;
14076;SDS011;7114;51.100;13.998;2022-10-17T10:45:47;18.73;;;13.17;;
14076;SDS011;7114;51.100;13.998;2022-10-17T10:48:17;19.02;;;12.55;;
14076;SDS011;7114;51.100;13.998;2022-10-17T10:50:47;17.58;;;13.52;;
14076;SDS011;7114;51.100;13.998;2022-10-17T10:53:26;18.35;;;13.15;;
14076;SDS011;7114;51.100;13.998;2022-10-17T10:55:58;17.25;;;13.43;;
14076;SDS011;7114;51.100;13.998;2022-10-17T10:58:33;18.53;;;13.40;;
14076;SDS011;7114;51.100;13.998;2022-10-17T11:01:05;17.50;;;13.20;;
14076;SDS011;7114;51.100;13.998;2022-10-17T11:03:38;18.27;;;13.68;;
14076;SDS011;7114;51.100;13.998;2022-10-17T11:06:11;18.20;;;13.70;;
14076;SDS011;7114;51.100;13.998;2022-10-17T11:08:41;18.75;;;14.02;;
14076;SDS011;7114;51.100;13.998;2022-10-17T11:11:11;17.20;;;14.43;;
14076;SDS011;7114;51.100;13.998;2022-10-17T11:13:44;18.83;;;13.82;;
14076;SDS011;7114;51.100;13.998;2022-10-17T11:16:25;17.63;;;14.23;;
14076;SDS011;7114;51.100;13.998;2022-10-17T11:18:55;18.88;;;13.82;;
14076;SDS011;7114;51.100;13.998;2022-10-17T11:21:27;18.60;;;13.98;;
14076;SDS011;7114;51.100;13.998;2022-10-17T11:24:02;17.33;;;13.50;;
14076;SDS011;7114;51.100;13.998;2022-10-17T11:26:34;16.88;;;13.70;;
14076;SDS011;7114;51.100;13.998;2022-10-17T11:29:03;18.42;;;14.07;;
14076;SDS011;7114;51.100;13.998;2022-10-17T11:31:31;19.48;;;13.95;;
14076;SDS011;7114;51.100;13.998;2022-10-17T11:34:01;16.60;;;13.35;;
14076;SDS011;7114;51.100;13.998;2022-10-17T11:36:31;20.53;;;13.53;;
14076;SDS011;7114;51.100;13.998;2022-10-17T11:39:00;18.70;;;13.73;;
14076;SDS011;7114;51.100;13.998;2022-10-17T11:41:30;18.08;;;13.63;;
14076;SDS011;7114;51.100;13.998;2022-10-17T11:44:02;17.40;;;13.60;;
14076;SDS011;7114;51.100;13.998;2022-10-17T11:46:33;17.20;;;12.98;;
14076;SDS011;7114;51.100;13.998;2022-10-17T11:49:03;17.20;;;12.93;;
14076;SDS011;7114;51.100;13.998;2022-10-17T11:51:38;17.88;;;13.85;;
14076;SDS011;7114;51.100;13.998;2022-10-17T11:54:10;16.20;;;13.15;;
14076;SDS011;7114;51.100;13.998;2022-10-17T11:56:39;19.70;;;13.20;;
14076;SDS011;7114;51.100;13.998;2022-10-17T11:59:23;18.40;;;13.45;;
14076;SDS011;7114;51.100;13.998;2022-10-17T12:02:00;17.20;;;14.07;;
14076;SDS011;7114;51.100;13.998;2022-10-17T12:04:33;17.52;;;13.40;;
14076;SDS011;7114;51.100;13.998;2022-10-17T12:07:09;16.83;;;13.38;;
14076;SDS011;7114;51.100;13.998;2022-10-17T12:09:41;17.92;;;13.15;;
14076;SDS011;7114;51.100;13.998;2022-10-17T12:12:10;16.88;;;13.60;;
14076;SDS011;7114;51.100;13.998;2022-10-17T12:14:39;16.03;;;12.77;;
14076;SDS011;7114;51.100;13.998;2022-10-17T12:17:20;18.25;;;13.50;;
14076;SDS011;7114;51.100;13.998;2022-10-17T12:19:48;19.20;;;13.52;;
14076;SDS011;7114;51.100;13.998;2022-10-17T12:22:20;20.63;;;13.65;;
14076;SDS011;7114;51.100;13.998;2022-10-17T12:24:54;17.27;;;14.13;;
14076;SDS011;7114;51.100;13.998;2022-10-17T12:27:32;18.73;;;13.17;;
14076;SDS011;7114;51.100;13.998;2022-10-17T12:30:01;18.10;;;13.23;;
14076;SDS011;7114;51.100;13.998;2022-10-17T12:32:29;18.15;;;12.90;;
14076;SDS011;7114;51.100;13.998;2022-10-17T12:34:56;17.08;;;13.18;;
14076;SDS011;7114;51.100;13.998;2022-10-17T12:43:32;19.30;;;13.90;;
14076;SDS011;7114;51.100;13.998;2022-10-17T12:46:02;16.90;;;12.80;;
14076;SDS011;7114;51.100;13.998;2022-10-17T12:51:26;16.75;;;13.05;;
14076;SDS011;7114;51.100;13.998;2022-10-17T12:53:56;16.57;;;12.60;;
14076;SDS011;7114;51.100;13.998;2022-10-17T12:56:30;21.45;;;12.45;;
14076;SDS011;7114;51.100;13.998;2022-10-17T12:59:00;16.63;;;12.93;;
14076;SDS011;7114;51.100;13.998;2022-10-17T13:01:33;15.43;;;12.70;;
14076;SDS011;7114;51.100;13.998;2022-10-17T13:04:02;16.92;;;12.52;;
14076;SDS011;7114;51.100;13.998;2022-10-17T13:06:30;17.63;;;11.60;;
14076;SDS011;7114;51.100;13.998;2022-10-17T13:09:03;17.08;;;12.13;;
14076;SDS011;7114;51.100;13.998;2022-10-17T13:11:32;18.05;;;12.13;;
14076;SDS011;7114;51.100;13.998;2022-10-17T13:14:00;15.75;;;11.95;;
14076;SDS011;7114;51.100;13.998;2022-10-17T13:16:29;17.73;;;12.50;;
14076;SDS011;7114;51.100;13.998;2022-10-17T13:18:56;17.63;;;12.33;;
14076;SDS011;7114;51.100;13.998;2022-10-17T13:21:23;17.00;;;11.98;;
14076;SDS011;7114;51.100;13.998;2022-10-17T13:23:50;15.13;;;12.05;;
14076;SDS011;7114;51.100;13.998;2022-10-17T13:26:20;16.08;;;12.00;;
14076;SDS011;7114;51.100;13.998;2022-10-17T13:28:59;15.95;;;11.93;;
14076;SDS011;7114;51.100;13.998;2022-10-17T13:31:27;16.43;;;11.80;;
14076;SDS011;7114;51.100;13.998;2022-10-17T13:33:55;17.75;;;12.18;;
14076;SDS011;7114;51.100;13.998;2022-10-17T13:36:23;20.52;;;13.23;;
14076;SDS011;7114;51.100;13.998;2022-10-17T13:38:50;15.68;;;11.43;;
14076;SDS011;7114;51.100;13.998;2022-10-17T13:41:16;17.88;;;11.65;;
14076;SDS011;7114;51.100;13.998;2022-10-17T13:43:44;16.30;;;12.37;;
14076;SDS011;7114;51.100;13.998;2022-10-17T13:46:14;17.40;;;12.52;;
14076;SDS011;7114;51.100;13.998;2022-10-17T13:48:44;22.00;;;11.82;;
14076;SDS011;7114;51.100;13.998;2022-10-17T13:51:10;16.25;;;11.82;;
14076;SDS011;7114;51.100;13.998;2022-10-17T13:53:38;16.88;;;12.73;;
14076;SDS011;7114;51.100;13.998;2022-10-17T13:56:16;17.03;;;12.17;;
14076;SDS011;7114;51.100;13.998;2022-10-17T13:58:45;17.90;;;12.00;;
14076;SDS011;7114;51.100;13.998;2022-10-17T14:01:13;17.33;;;12.18;;
14076;SDS011;7114;51.100;13.998;2022-10-17T14:03:40;16.88;;;12.20;;
14076;SDS011;7114;51.100;13.998;2022-10-17T14:06:11;18.92;;;13.02;;
14076;SDS011;7114;51.100;13.998;2022-10-17T14:08:47;19.05;;;12.93;;
14076;SDS011;7114;51.100;13.998;2022-10-17T14:11:19;16.77;;;13.13;;
14076;SDS011;7114;51.100;13.998;2022-10-17T14:13:50;16.30;;;12.20;;
14076;SDS011;7114;51.100;13.998;2022-10-17T14:16:18;17.58;;;12.65;;
14076;SDS011;7114;51.100;13.998;2022-10-17T14:18:45;17.35;;;12.98;;
14076;SDS011;7114;51.100;13.998;2022-10-17T14:21:17;18.83;;;13.05;;
14076;SDS011;7114;51.100;13.998;2022-10-17T14:23:45;19.43;;;12.70;;
14076;SDS011;7114;51.100;13.998;2022-10-17T14:26:13;17.65;;;12.30;;
14076;SDS011;7114;51.100;13.998;2022-10-17T14:28:42;17.95;;;13.13;;
14076;SDS011;7114;51.100;13.998;2022-10-17T14:31:21;18.83;;;13.35;;
14076;SDS011;7114;51.100;13.998;2022-10-17T14:33:50;20.83;;;13.13;;
14076;SDS011;7114;51.100;13.998;2022-10-17T14:36:17;19.93;;;12.60;;
14076;SDS011;7114;51.100;13.998;2022-10-17T14:38:45;18.40;;;12.98;;
14076;SDS011;7114;51.100;13.998;2022-10-17T14:41:13;18.77;;;12.75;;